sensor_id;sensor_type;location;lat;lon;timestamp;pressure;altitude;pressure_sealevel;temperature;humidity
65127;BME280;51927;49.080;19.652;2023-01-28T00:00:02;94350.84;;;21.65;44.09
65127;BME280;51927;49.080;19.652;2023-01-28T00:00:08;94356.16;;;21.65;44.15
65127;BME280;51927;49.080;19.652;2023-01-28T00:00:13;94352.44;;;21.66;44.09
65127;BME280;51927;49.080;19.652;2023-01-28T00:00:19;94351.63;;;21.66;44.17
65127;BME280;51927;49.080;19.652;2023-01-28T00:00:24;94347.88;;;21.67;44.21
65127;BME280;51927;49.080;19.652;2023-01-28T00:00:29;94347.09;;;21.66;44.10
65127;BME280;51927;49.080;19.652;2023-01-28T00:00:35;94342.84;;;21.65;44.31
65127;BME280;51927;49.080;19.652;2023-01-28T00:00:40;94347.88;;;21.67;44.46
65127;BME280;51927;49.080;19.652;2023-01-28T00:00:45;94351.31;;;21.67;44.27
65127;BME280;51927;49.080;19.652;2023-01-28T00:00:50;94351.63;;;21.66;44.28
65127;BME280;51927;49.080;19.652;2023-01-28T00:00:56;94341.75;;;21.66;44.14
65127;BME280;51927;49.080;19.652;2023-01-28T00:01:05;94347.09;;;21.66;44.13
65127;BME280;51927;49.080;19.652;2023-01-28T00:01:12;94353.19;;;21.67;44.33
65127;BME280;51927;49.080;19.652;2023-01-28T00:01:18;94348.66;;;21.67;44.16
65127;BME280;51927;49.080;19.652;2023-01-28T00:01:23;94352.13;;;21.68;44.25
65127;BME280;51927;49.080;19.652;2023-01-28T00:01:28;94349.44;;;21.68;44.07
65127;BME280;51927;49.080;19.652;2023-01-28T00:01:33;94345.97;;;21.67;44.38
65127;BME280;51927;49.080;19.652;2023-01-28T00:01:39;94351.31;;;21.67;44.30
65127;BME280;51927;49.080;19.652;2023-01-28T00:01:44;94344.13;;;21.68;44.14
65127;BME280;51927;49.080;19.652;2023-01-28T00:01:49;94347.88;;;21.67;44.14
65127;BME280;51927;49.080;19.652;2023-01-28T00:01:55;94358.22;;;21.68;44.14
65127;BME280;51927;49.080;19.652;2023-01-28T00:02:00;94349.44;;;21.68;44.21
65127;BME280;51927;49.080;19.652;2023-01-28T00:02:05;94348.66;;;21.67;44.21
65127;BME280;51927;49.080;19.652;2023-01-28T00:02:11;94348.66;;;21.67;44.22
65127;BME280;51927;49.080;19.652;2023-01-28T00:02:17;94349.75;;;21.66;44.19
65127;BME280;51927;49.080;19.652;2023-01-28T00:02:22;94347.09;;;21.66;44.20
65127;BME280;51927;49.080;19.652;2023-01-28T00:02:27;94353.97;;;21.67;44.16
65127;BME280;51927;49.080;19.652;2023-01-28T00:02:33;94352.44;;;21.66;44.30
65127;BME280;51927;49.080;19.652;2023-01-28T00:02:39;94348.66;;;21.67;44.17
65127;BME280;51927;49.080;19.652;2023-01-28T00:02:46;94355.56;;;21.68;44.33
65127;BME280;51927;49.080;19.652;2023-01-28T00:02:51;94349.44;;;21.68;44.25
65127;BME280;51927;49.080;19.652;2023-01-28T00:02:57;94347.88;;;21.67;44.16
65127;BME280;51927;49.080;19.652;2023-01-28T00:03:02;94353.97;;;21.67;43.96
65127;BME280;51927;49.080;19.652;2023-01-28T00:03:07;94353.19;;;21.67;44.27
65127;BME280;51927;49.080;19.652;2023-01-28T00:03:12;94353.97;;;21.67;44.28
65127;BME280;51927;49.080;19.652;2023-01-28T00:03:17;94350.53;;;21.67;44.39
65127;BME280;51927;49.080;19.652;2023-01-28T00:03:23;94348.66;;;21.67;44.36
65127;BME280;51927;49.080;19.652;2023-01-28T00:03:28;94352.91;;;21.68;44.41
65127;BME280;51927;49.080;19.652;2023-01-28T00:03:33;94349.75;;;21.66;44.12
65127;BME280;51927;49.080;19.652;2023-01-28T00:03:39;94350.84;;;21.65;44.20
65127;BME280;51927;49.080;19.652;2023-01-28T00:03:47;94349.75;;;21.66;44.35
65127;BME280;51927;49.080;19.652;2023-01-28T00:03:53;94357.75;;;21.66;44.40
65127;BME280;51927;49.080;19.652;2023-01-28T00:03:58;94352.44;;;21.66;44.27
65127;BME280;51927;49.080;19.652;2023-01-28T00:04:03;94350.53;;;21.67;44.35
65127;BME280;51927;49.080;19.652;2023-01-28T00:04:09;94351.31;;;21.67;44.22
65127;BME280;51927;49.080;19.652;2023-01-28T00:04:14;94353.97;;;21.67;44.35
65127;BME280;51927;49.080;19.652;2023-01-28T00:04:19;94352.13;;;21.68;44.21
65127;BME280;51927;49.080;19.652;2023-01-28T00:04:25;94348.66;;;21.67;44.21
65127;BME280;51927;49.080;19.652;2023-01-28T00:04:30;94348.66;;;21.67;44.34
65127;BME280;51927;49.080;19.652;2023-01-28T00:04:35;94355.88;;;21.67;44.24
65127;BME280;51927;49.080;19.652;2023-01-28T00:04:40;94350.84;;;21.65;44.33
65127;BME280;51927;49.080;19.652;2023-01-28T00:04:45;94350.84;;;21.65;44.29
65127;BME280;51927;49.080;19.652;2023-01-28T00:04:50;94350.84;;;21.65;44.24
65127;BME280;51927;49.080;19.652;2023-01-28T00:04:56;94346.28;;;21.66;44.47
65127;BME280;51927;49.080;19.652;2023-01-28T00:05:01;94352.44;;;21.66;44.48
65127;BME280;51927;49.080;19.652;2023-01-28T00:05:06;94359.31;;;21.67;44.20
65127;BME280;51927;49.080;19.652;2023-01-28T00:05:12;94353.19;;;21.67;44.23
65127;BME280;51927;49.080;19.652;2023-01-28T00:05:17;94349.75;;;21.66;44.30
65127;BME280;51927;49.080;19.652;2023-01-28T00:05:22;94348.94;;;21.66;44.37
65127;BME280;51927;49.080;19.652;2023-01-28T00:05:30;94349.75;;;21.66;44.24
65127;BME280;51927;49.080;19.652;2023-01-28T00:05:35;94347.88;;;21.67;44.24
65127;BME280;51927;49.080;19.652;2023-01-28T00:05:41;94348.66;;;21.67;44.27
65127;BME280;51927;49.080;19.652;2023-01-28T00:05:46;94351.31;;;21.67;44.52
65127;BME280;51927;49.080;19.652;2023-01-28T00:05:51;94358.53;;;21.67;44.30
65127;BME280;51927;49.080;19.652;2023-01-28T00:06:02;94353.19;;;21.67;44.39
65127;BME280;51927;49.080;19.652;2023-01-28T00:06:08;94349.44;;;21.68;44.34
65127;BME280;51927;49.080;19.652;2023-01-28T00:06:14;94348.66;;;21.67;44.29
65127;BME280;51927;49.080;19.652;2023-01-28T00:06:19;94354.78;;;21.68;44.10
65127;BME280;51927;49.080;19.652;2023-01-28T00:06:24;94353.19;;;21.67;44.21
65127;BME280;51927;49.080;19.652;2023-01-28T00:06:29;94354.78;;;21.68;44.43
65127;BME280;51927;49.080;19.652;2023-01-28T00:06:34;94351.31;;;21.67;44.17
65127;BME280;51927;49.080;19.652;2023-01-28T00:06:40;94352.13;;;21.68;44.21
65127;BME280;51927;49.080;19.652;2023-01-28T00:06:45;94352.13;;;21.68;44.29
65127;BME280;51927;49.080;19.652;2023-01-28T00:06:50;94349.44;;;21.68;44.19
65127;BME280;51927;49.080;19.652;2023-01-28T00:06:57;94348.66;;;21.67;44.25
65127;BME280;51927;49.080;19.652;2023-01-28T00:07:02;94350.22;;;21.68;44.25
65127;BME280;51927;49.080;19.652;2023-01-28T00:07:07;94348.34;;;21.69;44.28
65127;BME280;51927;49.080;19.652;2023-01-28T00:07:13;94345.69;;;21.69;44.39
65127;BME280;51927;49.080;19.652;2023-01-28T00:07:18;94349.16;;;21.69;44.15
65127;BME280;51927;49.080;19.652;2023-01-28T00:07:23;94353.69;;;21.69;44.18
65127;BME280;51927;49.080;19.652;2023-01-28T00:07:28;94351.81;;;21.69;44.29
65127;BME280;51927;49.080;19.652;2023-01-28T00:07:34;94346.50;;;21.69;44.25
65127;BME280;51927;49.080;19.652;2023-01-28T00:07:39;94352.59;;;21.70;44.19
65127;BME280;51927;49.080;19.652;2023-01-28T00:07:44;94345.69;;;21.69;44.19
65127;BME280;51927;49.080;19.652;2023-01-28T00:07:52;94352.91;;;21.68;44.09
65127;BME280;51927;49.080;19.652;2023-01-28T00:07:57;94351.81;;;21.69;44.26
65127;BME280;51927;49.080;19.652;2023-01-28T00:08:03;94352.91;;;21.68;44.15
65127;BME280;51927;49.080;19.652;2023-01-28T00:08:08;94349.44;;;21.68;44.10
65127;BME280;51927;49.080;19.652;2023-01-28T00:08:14;94349.44;;;21.68;44.26
65127;BME280;51927;49.080;19.652;2023-01-28T00:08:19;94355.56;;;21.68;44.36
65127;BME280;51927;49.080;19.652;2023-01-28T00:08:24;94359.00;;;21.69;44.33
65127;BME280;51927;49.080;19.652;2023-01-28T00:08:29;94353.69;;;21.69;44.38
65127;BME280;51927;49.080;19.652;2023-01-28T00:08:35;94351.81;;;21.69;44.36
65127;BME280;51927;49.080;19.652;2023-01-28T00:08:40;94351.81;;;21.69;44.25
65127;BME280;51927;49.080;19.652;2023-01-28T00:08:45;94351.81;;;21.69;44.16
65127;BME280;51927;49.080;19.652;2023-01-28T00:08:52;94354.47;;;21.69;44.15
65127;BME280;51927;49.080;19.652;2023-01-28T00:08:59;94352.91;;;21.68;44.23
65127;BME280;51927;49.080;19.652;2023-01-28T00:09:04;94353.19;;;21.67;44.37
65127;BME280;51927;49.080;19.652;2023-01-28T00:09:10;94357.75;;;21.66;44.28
65127;BME280;51927;49.080;19.652;2023-01-28T00:09:15;94361.97;;;21.67;44.32
65127;BME280;51927;49.080;19.652;2023-01-28T00:09:20;94353.19;;;21.67;44.49
65127;BME280;51927;49.080;19.652;2023-01-28T00:09:26;94347.88;;;21.67;44.30
65127;BME280;51927;49.080;19.652;2023-01-28T00:09:31;94355.56;;;21.68;44.45
65127;BME280;51927;49.080;19.652;2023-01-28T00:09:36;94356.63;;;21.67;44.42
65127;BME280;51927;49.080;19.652;2023-01-28T00:09:43;94350.22;;;21.68;44.34
65127;BME280;51927;49.080;19.652;2023-01-28T00:09:48;94352.91;;;21.68;44.25
65127;BME280;51927;49.080;19.652;2023-01-28T00:09:53;94346.50;;;21.69;44.36
65127;BME280;51927;49.080;19.652;2023-01-28T00:09:58;94346.78;;;21.68;44.19
65127;BME280;51927;49.080;19.652;2023-01-28T00:10:04;94353.97;;;21.67;44.27
65127;BME280;51927;49.080;19.652;2023-01-28T00:10:09;94348.66;;;21.67;44.21
65127;BME280;51927;49.080;19.652;2023-01-28T00:10:15;94353.97;;;21.67;44.39
65127;BME280;51927;49.080;19.652;2023-01-28T00:10:20;94352.13;;;21.68;44.23
65127;BME280;51927;49.080;19.652;2023-01-28T00:10:25;94357.44;;;21.68;44.29
65127;BME280;51927;49.080;19.652;2023-01-28T00:10:30;94350.22;;;21.68;44.16
65127;BME280;51927;49.080;19.652;2023-01-28T00:10:36;94353.97;;;21.67;44.40
65127;BME280;51927;49.080;19.652;2023-01-28T00:10:43;94344.91;;;21.68;44.20
65127;BME280;51927;49.080;19.652;2023-01-28T00:10:48;94345.69;;;21.69;44.26
65127;BME280;51927;49.080;19.652;2023-01-28T00:10:53;94351.00;;;21.69;44.29
65127;BME280;51927;49.080;19.652;2023-01-28T00:10:59;94351.81;;;21.69;44.24
65127;BME280;51927;49.080;19.652;2023-01-28T00:11:05;94351.00;;;21.69;44.41
65127;BME280;51927;49.080;19.652;2023-01-28T00:11:11;94356.34;;;21.69;44.35
65127;BME280;51927;49.080;19.652;2023-01-28T00:11:17;94356.34;;;21.69;44.13
65127;BME280;51927;49.080;19.652;2023-01-28T00:11:22;94351.81;;;21.69;44.26
65127;BME280;51927;49.080;19.652;2023-01-28T00:11:27;94353.69;;;21.69;44.33
65127;BME280;51927;49.080;19.652;2023-01-28T00:11:32;94350.22;;;21.68;44.39
65127;BME280;51927;49.080;19.652;2023-01-28T00:11:38;94354.78;;;21.68;44.23
65127;BME280;51927;49.080;19.652;2023-01-28T00:11:43;94350.22;;;21.68;44.40
65127;BME280;51927;49.080;19.652;2023-01-28T00:11:48;94350.22;;;21.68;44.39
65127;BME280;51927;49.080;19.652;2023-01-28T00:11:53;94346.78;;;21.68;44.35
65127;BME280;51927;49.080;19.652;2023-01-28T00:11:58;94354.78;;;21.68;44.27
65127;BME280;51927;49.080;19.652;2023-01-28T00:12:04;94355.56;;;21.68;44.38
65127;BME280;51927;49.080;19.652;2023-01-28T00:12:09;94352.91;;;21.68;44.27
65127;BME280;51927;49.080;19.652;2023-01-28T00:12:14;94353.97;;;21.67;44.27
65127;BME280;51927;49.080;19.652;2023-01-28T00:12:20;94352.91;;;21.68;44.29
65127;BME280;51927;49.080;19.652;2023-01-28T00:12:25;94351.31;;;21.67;44.25
65127;BME280;51927;49.080;19.652;2023-01-28T00:12:31;94353.97;;;21.67;44.48
65127;BME280;51927;49.080;19.652;2023-01-28T00:12:36;94351.31;;;21.67;44.39
65127;BME280;51927;49.080;19.652;2023-01-28T00:12:41;94350.22;;;21.68;44.30
65127;BME280;51927;49.080;19.652;2023-01-28T00:12:46;94353.97;;;21.67;44.52
65127;BME280;51927;49.080;19.652;2023-01-28T00:12:51;94353.19;;;21.67;44.28
65127;BME280;51927;49.080;19.652;2023-01-28T00:12:57;94349.44;;;21.68;44.35
65127;BME280;51927;49.080;19.652;2023-01-28T00:13:02;94351.31;;;21.67;44.29
65127;BME280;51927;49.080;19.652;2023-01-28T00:13:07;94352.13;;;21.68;44.30
65127;BME280;51927;49.080;19.652;2023-01-28T00:13:15;94360.13;;;21.68;44.27
65127;BME280;51927;49.080;19.652;2023-01-28T00:13:20;94356.63;;;21.67;44.42
65127;BME280;51927;49.080;19.652;2023-01-28T00:13:25;94359.31;;;21.67;44.48
65127;BME280;51927;49.080;19.652;2023-01-28T00:13:31;94357.44;;;21.68;44.28
65127;BME280;51927;49.080;19.652;2023-01-28T00:13:36;94359.31;;;21.67;44.39
65127;BME280;51927;49.080;19.652;2023-01-28T00:13:41;94355.56;;;21.68;44.33
65127;BME280;51927;49.080;19.652;2023-01-28T00:13:50;94351.31;;;21.67;44.40
65127;BME280;51927;49.080;19.652;2023-01-28T00:13:56;94356.94;;;21.66;44.38
65127;BME280;51927;49.080;19.652;2023-01-28T00:14:01;94354.28;;;21.66;44.35
65127;BME280;51927;49.080;19.652;2023-01-28T00:14:09;94352.44;;;21.66;44.39
65127;BME280;51927;49.080;19.652;2023-01-28T00:14:15;94353.97;;;21.67;44.28
65127;BME280;51927;49.080;19.652;2023-01-28T00:14:20;94353.97;;;21.67;44.34
65127;BME280;51927;49.080;19.652;2023-01-28T00:14:25;94354.78;;;21.68;44.32
65127;BME280;51927;49.080;19.652;2023-01-28T00:14:30;94348.66;;;21.67;44.42
65127;BME280;51927;49.080;19.652;2023-01-28T00:14:35;94360.13;;;21.68;44.33
65127;BME280;51927;49.080;19.652;2023-01-28T00:14:41;94360.13;;;21.68;44.40
65127;BME280;51927;49.080;19.652;2023-01-28T00:14:46;94357.44;;;21.68;44.32
65127;BME280;51927;49.080;19.652;2023-01-28T00:14:51;94359.31;;;21.67;44.49
65127;BME280;51927;49.080;19.652;2023-01-28T00:14:57;94353.19;;;21.67;44.35
65127;BME280;51927;49.080;19.652;2023-01-28T00:15:02;94360.41;;;21.66;44.28
65127;BME280;51927;49.080;19.652;2023-01-28T00:15:08;94359.31;;;21.67;44.38
65127;BME280;51927;49.080;19.652;2023-01-28T00:15:14;94353.19;;;21.67;44.62
65127;BME280;51927;49.080;19.652;2023-01-28T00:15:19;94357.75;;;21.66;44.26
65127;BME280;51927;49.080;19.652;2023-01-28T00:15:24;94348.66;;;21.67;44.36
65127;BME280;51927;49.080;19.652;2023-01-28T00:15:29;94349.44;;;21.68;44.52
65127;BME280;51927;49.080;19.652;2023-01-28T00:15:35;94355.88;;;21.67;44.47
65127;BME280;51927;49.080;19.652;2023-01-28T00:15:40;94347.88;;;21.67;44.32
65127;BME280;51927;49.080;19.652;2023-01-28T00:15:45;94355.88;;;21.67;44.48
65127;BME280;51927;49.080;19.652;2023-01-28T00:15:59;94354.28;;;21.66;44.21
65127;BME280;51927;49.080;19.652;2023-01-28T00:16:05;94351.63;;;21.66;44.54
65127;BME280;51927;49.080;19.652;2023-01-28T00:16:12;94361.50;;;21.65;44.40
65127;BME280;51927;49.080;19.652;2023-01-28T00:16:17;94358.84;;;21.65;44.57
65127;BME280;51927;49.080;19.652;2023-01-28T00:16:23;94356.16;;;21.65;44.37
65127;BME280;51927;49.080;19.652;2023-01-28T00:16:28;94356.16;;;21.65;44.41
65127;BME280;51927;49.080;19.652;2023-01-28T00:16:34;94361.50;;;21.65;44.47
65127;BME280;51927;49.080;19.652;2023-01-28T00:16:39;94356.94;;;21.66;44.35
65127;BME280;51927;49.080;19.652;2023-01-28T00:16:44;94354.28;;;21.66;44.37
65127;BME280;51927;49.080;19.652;2023-01-28T00:16:50;94353.19;;;21.67;44.41
65127;BME280;51927;49.080;19.652;2023-01-28T00:16:55;94355.09;;;21.66;44.30
65127;BME280;51927;49.080;19.652;2023-01-28T00:17:00;94361.97;;;21.67;44.36
65127;BME280;51927;49.080;19.652;2023-01-28T00:17:06;94360.41;;;21.66;44.47
65127;BME280;51927;49.080;19.652;2023-01-28T00:17:11;94353.19;;;21.67;44.55
65127;BME280;51927;49.080;19.652;2023-01-28T00:17:16;94356.63;;;21.67;44.35
65127;BME280;51927;49.080;19.652;2023-01-28T00:17:21;94359.31;;;21.67;44.35
65127;BME280;51927;49.080;19.652;2023-01-28T00:17:26;94353.19;;;21.67;44.35
65127;BME280;51927;49.080;19.652;2023-01-28T00:17:31;94358.53;;;21.67;44.43
65127;BME280;51927;49.080;19.652;2023-01-28T00:17:37;94358.53;;;21.67;44.43
65127;BME280;51927;49.080;19.652;2023-01-28T00:17:42;94359.31;;;21.67;44.35
65127;BME280;51927;49.080;19.652;2023-01-28T00:17:47;94355.88;;;21.67;44.40
65127;BME280;51927;49.080;19.652;2023-01-28T00:17:53;94358.53;;;21.67;44.48
65127;BME280;51927;49.080;19.652;2023-01-28T00:17:58;94354.28;;;21.66;44.36
65127;BME280;51927;49.080;19.652;2023-01-28T00:18:04;94354.28;;;21.66;44.35
65127;BME280;51927;49.080;19.652;2023-01-28T00:18:09;94355.88;;;21.67;44.52
65127;BME280;51927;49.080;19.652;2023-01-28T00:18:14;94353.97;;;21.67;44.52
65127;BME280;51927;49.080;19.652;2023-01-28T00:18:19;94352.13;;;21.68;44.43
65127;BME280;51927;49.080;19.652;2023-01-28T00:18:25;94359.31;;;21.67;44.26
65127;BME280;51927;49.080;19.652;2023-01-28T00:18:31;94360.88;;;21.68;44.60
65127;BME280;51927;49.080;19.652;2023-01-28T00:18:37;94356.63;;;21.67;44.52
65127;BME280;51927;49.080;19.652;2023-01-28T00:18:42;94358.53;;;21.67;44.41
65127;BME280;51927;49.080;19.652;2023-01-28T00:18:47;94355.88;;;21.67;44.28
65127;BME280;51927;49.080;19.652;2023-01-28T00:18:53;94352.44;;;21.66;44.42
65127;BME280;51927;49.080;19.652;2023-01-28T00:18:58;94354.28;;;21.66;44.35
65127;BME280;51927;49.080;19.652;2023-01-28T00:19:03;94355.09;;;21.66;44.29
65127;BME280;51927;49.080;19.652;2023-01-28T00:19:08;94355.09;;;21.66;44.39
65127;BME280;51927;49.080;19.652;2023-01-28T00:19:13;94355.09;;;21.66;44.21
65127;BME280;51927;49.080;19.652;2023-01-28T00:19:19;94357.75;;;21.66;44.42
65127;BME280;51927;49.080;19.652;2023-01-28T00:19:24;94363.09;;;21.66;44.42
65127;BME280;51927;49.080;19.652;2023-01-28T00:19:29;94362.28;;;21.66;44.48
65127;BME280;51927;49.080;19.652;2023-01-28T00:19:34;94350.06;;;21.65;44.58
65127;BME280;51927;49.080;19.652;2023-01-28T00:19:40;94359.91;;;21.64;44.47
65127;BME280;51927;49.080;19.652;2023-01-28T00:19:45;94355.41;;;21.65;44.57
65127;BME280;51927;49.080;19.652;2023-01-28T00:19:50;94357.25;;;21.64;44.53
65127;BME280;51927;49.080;19.652;2023-01-28T00:19:55;94354.59;;;21.64;44.40
65127;BME280;51927;49.080;19.652;2023-01-28T00:20:01;94358.34;;;21.63;44.39
65127;BME280;51927;49.080;19.652;2023-01-28T00:20:06;94347.69;;;21.63;44.43
65127;BME280;51927;49.080;19.652;2023-01-28T00:20:12;94357.25;;;21.64;44.58
65127;BME280;51927;49.080;19.652;2023-01-28T00:20:17;94357.25;;;21.64;44.61
65127;BME280;51927;49.080;19.652;2023-01-28T00:20:22;94358.06;;;21.65;44.67
65127;BME280;51927;49.080;19.652;2023-01-28T00:20:27;94354.28;;;21.66;44.42
65127;BME280;51927;49.080;19.652;2023-01-28T00:20:32;94353.50;;;21.65;44.54
65127;BME280;51927;49.080;19.652;2023-01-28T00:20:39;94357.25;;;21.64;44.45
65127;BME280;51927;49.080;19.652;2023-01-28T00:20:54;94354.59;;;21.64;44.43
65127;BME280;51927;49.080;19.652;2023-01-28T00:21:00;94357.25;;;21.64;44.62
65127;BME280;51927;49.080;19.652;2023-01-28T00:21:06;94356.16;;;21.65;44.61
65127;BME280;51927;49.080;19.652;2023-01-28T00:21:13;94358.84;;;21.65;44.55
65127;BME280;51927;49.080;19.652;2023-01-28T00:21:18;94367.59;;;21.66;44.46
65127;BME280;51927;49.080;19.652;2023-01-28T00:21:23;94363.09;;;21.66;44.40
65127;BME280;51927;49.080;19.652;2023-01-28T00:21:29;94358.53;;;21.67;44.33
65127;BME280;51927;49.080;19.652;2023-01-28T00:21:34;94357.75;;;21.66;44.57
65127;BME280;51927;49.080;19.652;2023-01-28T00:21:39;94357.75;;;21.66;44.68
65127;BME280;51927;49.080;19.652;2023-01-28T00:21:44;94351.63;;;21.66;44.41
65127;BME280;51927;49.080;19.652;2023-01-28T00:21:49;94358.84;;;21.65;44.40
65127;BME280;51927;49.080;19.652;2023-01-28T00:21:55;94354.28;;;21.66;44.60
65127;BME280;51927;49.080;19.652;2023-01-28T00:22:00;94358.84;;;21.65;44.57
65127;BME280;51927;49.080;19.652;2023-01-28T00:22:05;94356.94;;;21.66;44.42
65127;BME280;51927;49.080;19.652;2023-01-28T00:22:11;94359.59;;;21.66;44.68
65127;BME280;51927;49.080;19.652;2023-01-28T00:22:16;94357.25;;;21.64;44.49
65127;BME280;51927;49.080;19.652;2023-01-28T00:22:21;94357.25;;;21.64;44.56
65127;BME280;51927;49.080;19.652;2023-01-28T00:22:26;94359.91;;;21.64;44.47
65127;BME280;51927;49.080;19.652;2023-01-28T00:22:32;94349.25;;;21.64;44.57
65127;BME280;51927;49.080;19.652;2023-01-28T00:22:37;94356.94;;;21.66;44.40
65127;BME280;51927;49.080;19.652;2023-01-28T00:22:46;94357.25;;;21.64;44.54
65127;BME280;51927;49.080;19.652;2023-01-28T00:22:51;94351.91;;;21.64;44.67
65127;BME280;51927;49.080;19.652;2023-01-28T00:22:57;94359.91;;;21.64;44.43
65127;BME280;51927;49.080;19.652;2023-01-28T00:23:02;94357.25;;;21.64;44.68
65127;BME280;51927;49.080;19.652;2023-01-28T00:23:07;94358.34;;;21.63;44.39
65127;BME280;51927;49.080;19.652;2023-01-28T00:23:13;94359.91;;;21.64;44.58
65127;BME280;51927;49.080;19.652;2023-01-28T00:23:18;94357.25;;;21.64;44.44
65127;BME280;51927;49.080;19.652;2023-01-28T00:23:23;94359.91;;;21.64;44.58
65127;BME280;51927;49.080;19.652;2023-01-28T00:23:29;94365.25;;;21.64;44.51
65127;BME280;51927;49.080;19.652;2023-01-28T00:23:35;94366.81;;;21.65;44.51
65127;BME280;51927;49.080;19.652;2023-01-28T00:23:42;94356.16;;;21.65;44.49
65127;BME280;51927;49.080;19.652;2023-01-28T00:23:49;94358.84;;;21.65;44.56
65127;BME280;51927;49.080;19.652;2023-01-28T00:23:55;94358.84;;;21.65;44.50
65127;BME280;51927;49.080;19.652;2023-01-28T00:24:00;94358.84;;;21.65;44.55
65127;BME280;51927;49.080;19.652;2023-01-28T00:24:06;94366.06;;;21.65;44.55
65127;BME280;51927;49.080;19.652;2023-01-28T00:24:13;94367.91;;;21.64;44.67
65127;BME280;51927;49.080;19.652;2023-01-28T00:24:19;94359.13;;;21.64;44.56
65127;BME280;51927;49.080;19.652;2023-01-28T00:24:24;94361.03;;;21.63;44.71
65127;BME280;51927;49.080;19.652;2023-01-28T00:24:29;94357.59;;;21.63;44.54
65127;BME280;51927;49.080;19.652;2023-01-28T00:24:35;94369.00;;;21.63;44.71
65127;BME280;51927;49.080;19.652;2023-01-28T00:24:40;94359.13;;;21.64;44.62
65127;BME280;51927;49.080;19.652;2023-01-28T00:24:45;94363.69;;;21.63;44.56
65127;BME280;51927;49.080;19.652;2023-01-28T00:24:50;94365.25;;;21.64;44.36
65127;BME280;51927;49.080;19.652;2023-01-28T00:24:55;94358.84;;;21.65;44.48
65127;BME280;51927;49.080;19.652;2023-01-28T00:25:00;94370.56;;;21.64;44.45
65127;BME280;51927;49.080;19.652;2023-01-28T00:25:06;94361.50;;;21.65;44.50
65127;BME280;51927;49.080;19.652;2023-01-28T00:25:11;94367.59;;;21.66;44.51
65127;BME280;51927;49.080;19.652;2023-01-28T00:25:16;94364.16;;;21.65;44.40
65127;BME280;51927;49.080;19.652;2023-01-28T00:25:21;94365.75;;;21.66;44.46
65127;BME280;51927;49.080;19.652;2023-01-28T00:25:26;94360.41;;;21.66;44.34
65127;BME280;51927;49.080;19.652;2023-01-28T00:25:32;94367.59;;;21.66;44.35
65127;BME280;51927;49.080;19.652;2023-01-28T00:25:37;94357.75;;;21.66;44.40
65127;BME280;51927;49.080;19.652;2023-01-28T00:25:42;94354.59;;;21.64;44.61
65127;BME280;51927;49.080;19.652;2023-01-28T00:25:47;94362.28;;;21.66;44.46
65127;BME280;51927;49.080;19.652;2023-01-28T00:25:52;94361.50;;;21.65;44.60
65127;BME280;51927;49.080;19.652;2023-01-28T00:25:59;94361.50;;;21.65;44.62
65127;BME280;51927;49.080;19.652;2023-01-28T00:26:06;94362.28;;;21.66;44.55
65127;BME280;51927;49.080;19.652;2023-01-28T00:26:12;94358.84;;;21.65;44.55
65127;BME280;51927;49.080;19.652;2023-01-28T00:26:18;94363.84;;;21.67;44.44
65127;BME280;51927;49.080;19.652;2023-01-28T00:26:24;94356.94;;;21.66;44.36
65127;BME280;51927;49.080;19.652;2023-01-28T00:26:29;94363.09;;;21.66;44.37
65127;BME280;51927;49.080;19.652;2023-01-28T00:26:34;94363.09;;;21.66;44.61
65127;BME280;51927;49.080;19.652;2023-01-28T00:26:40;94363.09;;;21.66;44.37
65127;BME280;51927;49.080;19.652;2023-01-28T00:26:45;94360.41;;;21.66;44.57
65127;BME280;51927;49.080;19.652;2023-01-28T00:26:50;94358.53;;;21.67;44.48
65127;BME280;51927;49.080;19.652;2023-01-28T00:26:55;94363.09;;;21.66;44.61
65127;BME280;51927;49.080;19.652;2023-01-28T00:27:00;94363.09;;;21.66;44.47
65127;BME280;51927;49.080;19.652;2023-01-28T00:27:06;94360.41;;;21.66;44.59
65127;BME280;51927;49.080;19.652;2023-01-28T00:27:11;94364.94;;;21.66;44.61
65127;BME280;51927;49.080;19.652;2023-01-28T00:27:16;94361.19;;;21.67;44.50
65127;BME280;51927;49.080;19.652;2023-01-28T00:27:21;94356.94;;;21.66;44.44
65127;BME280;51927;49.080;19.652;2023-01-28T00:27:27;94363.09;;;21.66;44.41
65127;BME280;51927;49.080;19.652;2023-01-28T00:27:32;94359.31;;;21.67;44.66
65127;BME280;51927;49.080;19.652;2023-01-28T00:27:37;94373.44;;;21.68;44.49
65127;BME280;51927;49.080;19.652;2023-01-28T00:27:42;94369.97;;;21.67;44.32
65127;BME280;51927;49.080;19.652;2023-01-28T00:27:48;94366.22;;;21.68;44.43
65127;BME280;51927;49.080;19.652;2023-01-28T00:27:53;94361.19;;;21.67;44.52
65127;BME280;51927;49.080;19.652;2023-01-28T00:27:59;94359.59;;;21.66;44.51
65127;BME280;51927;49.080;19.652;2023-01-28T00:28:04;94359.59;;;21.66;44.44
65127;BME280;51927;49.080;19.652;2023-01-28T00:28:09;94370.28;;;21.66;44.77
65127;BME280;51927;49.080;19.652;2023-01-28T00:28:15;94369.50;;;21.65;44.48
65127;BME280;51927;49.080;19.652;2023-01-28T00:28:20;94366.81;;;21.65;44.51
65127;BME280;51927;49.080;19.652;2023-01-28T00:28:26;94360.72;;;21.65;44.65
65127;BME280;51927;49.080;19.652;2023-01-28T00:28:31;94367.91;;;21.64;44.58
65127;BME280;51927;49.080;19.652;2023-01-28T00:28:36;94360.41;;;21.66;44.40
65127;BME280;51927;49.080;19.652;2023-01-28T00:28:42;94366.81;;;21.65;44.44
65127;BME280;51927;49.080;19.652;2023-01-28T00:28:47;94362.28;;;21.66;44.69
65127;BME280;51927;49.080;19.652;2023-01-28T00:28:52;94363.09;;;21.66;44.61
65127;BME280;51927;49.080;19.652;2023-01-28T00:28:57;94361.19;;;21.67;44.56
65127;BME280;51927;49.080;19.652;2023-01-28T00:29:02;94368.41;;;21.66;44.52